Time;durP1;ratioP1;P1;durP2;ratioP2;P2;SDS_P1;SDS_P2;PMS_P1;PMS_P2;Temp;Humidity;BMP_temperature;BMP_pressure;BME280_temperature;BME280_humidity;BME280_pressure;Samples;Min_cycle;Max_cycle;Signal;HPM_P1;HPM_P2
2024/01/30 00:00:42;;;;;;;19.08;10.40;;;;;;;5.13;53.86;101775.41;4968547;28;96912;-77
2024/01/30 00:03:07;;;;;;;25.63;11.73;;;;;;;5.24;53.88;101785.09;4987153;28;99021;-77
2024/01/30 00:05:33;;;;;;;34.00;11.80;;;;;;;5.18;53.89;101789.38;4987107;28;97508;-76
2024/01/30 00:07:58;;;;;;;25.93;10.67;;;;;;;5.26;53.35;101812.00;4988661;28;96989;-77
2024/01/30 00:10:24;;;;;;;19.87;9.20;;;;;;;5.17;53.76;101774.59;4971046;28;97858;-77
2024/01/30 00:12:49;;;;;;;23.33;11.40;;;;;;;5.35;53.36;101814.69;5002773;28;98049;-76
2024/01/30 00:15:15;;;;;;;22.37;10.57;;;;;;;5.12;54.29;101789.31;4969645;28;101723;-77
2024/01/30 00:17:40;;;;;;;21.07;9.77;;;;;;;5.25;53.71;101786.84;4985322;28;96854;-76
2024/01/30 00:20:07;;;;;;;20.53;10.53;;;;;;;5.19;53.32;101793.72;4984951;28;97394;-76
2024/01/30 00:22:32;;;;;;;20.90;9.80;;;;;;;5.22;54.22;101811.97;4986778;28;97464;-76
2024/01/30 00:24:58;;;;;;;22.95;11.18;;;;;;;5.23;54.29;101815.44;4988872;28;97423;-76
2024/01/30 00:27:23;;;;;;;23.33;10.35;;;;;;;5.17;54.17;101803.22;4968879;28;97227;-77
2024/01/30 00:29:49;;;;;;;22.23;10.60;;;;;;;5.05;53.71;101797.88;4986671;28;96880;-76
2024/01/30 00:32:14;;;;;;;23.33;10.17;;;;;;;5.16;54.35;101818.84;5005423;28;97499;-76
2024/01/30 00:34:41;;;;;;;20.90;9.90;;;;;;;5.15;53.48;101797.16;4968993;28;100961;-76
2024/01/30 00:37:07;;;;;;;20.95;9.98;;;;;;;5.20;53.78;101821.47;4984188;28;96824;-76
2024/01/30 00:39:32;;;;;;;20.83;9.57;;;;;;;5.15;54.09;101810.16;5004801;28;96759;-76
2024/01/30 00:41:58;;;;;;;23.25;11.32;;;;;;;5.23;53.95;101812.84;4970108;28;101302;-76
2024/01/30 00:44:23;;;;;;;30.33;11.20;;;;;;;5.18;54.01;101812.78;4978377;28;101359;-77
2024/01/30 00:46:49;;;;;;;25.63;11.27;;;;;;;5.09;54.34;101806.59;4999099;28;96714;-76
2024/01/30 00:49:14;;;;;;;23.07;10.47;;;;;;;5.09;54.26;101815.28;4970278;28;96967;-76
2024/01/30 00:51:40;;;;;;;20.83;9.93;;;;;;;5.03;54.41;101811.72;4966796;28;97895;-77
2024/01/30 00:54:06;;;;;;;28.40;11.93;;;;;;;4.79;54.33;101775.88;4987218;28;100871;-76
2024/01/30 00:56:32;;;;;;;31.83;10.80;;;;;;;4.85;54.33;101782.00;4985121;28;97159;-76
2024/01/30 00:58:57;;;;;;;21.42;10.63;;;;;;;4.82;54.29;101779.38;4983012;28;96809;-77
2024/01/30 01:01:23;;;;;;;25.77;11.15;;;;;;;4.89;54.58;101814.16;4984420;28;97417;-77
2024/01/30 01:03:48;;;;;;;25.77;11.00;;;;;;;4.84;54.29;101800.22;4967104;28;98002;-77
2024/01/30 01:06:14;;;;;;;30.03;12.07;;;;;;;4.90;54.84;101816.78;4987563;28;96841;-76
2024/01/30 01:08:39;;;;;;;23.83;11.00;;;;;;;4.94;54.55;101825.50;4986554;28;97120;-77
2024/01/30 01:11:05;;;;;;;21.53;10.67;;;;;;;4.85;54.79;101812.38;4974801;28;98213;-77
2024/01/30 01:13:30;;;;;;;26.30;11.20;;;;;;;4.90;54.63;101816.78;5003183;28;97424;-77
2024/01/30 01:15:56;;;;;;;27.00;10.23;;;;;;;4.97;54.51;101815.13;5001639;28;97186;-76
2024/01/30 01:18:21;;;;;;;28.03;10.43;;;;;;;4.73;54.72;101780.13;4985704;28;96953;-76
2024/01/30 01:20:47;;;;;;;26.63;12.40;;;;;;;4.72;54.60;101791.41;4970342;28;97495;-77
2024/01/30 01:23:13;;;;;;;29.93;12.97;;;;;;;4.78;55.09;101820.97;4953560;28;101158;-76
2024/01/30 01:25:38;;;;;;;26.93;11.30;;;;;;;4.88;54.99;101825.41;4986174;28;96831;-76
2024/01/30 01:28:04;;;;;;;31.27;12.33;;;;;;;4.82;54.51;101788.91;4974477;28;97293;-77
2024/01/30 01:30:30;;;;;;;30.30;13.53;;;;;;;4.90;54.38;101810.72;4984481;28;97798;-77
2024/01/30 01:32:56;;;;;;;35.43;14.00;;;;;;;4.84;54.49;101818.44;4968681;28;101105;-76
2024/01/30 01:35:24;;;;;;;27.17;12.80;;;;;;;4.74;54.93;101809.59;4966268;28;96959;-76
2024/01/30 01:37:54;;;;;;;30.63;13.77;;;;;;;4.71;55.24;101806.97;4955775;28;98155;-76
2024/01/30 01:40:22;;;;;;;26.57;12.07;;;;;;;4.59;54.79;101792.06;4986020;28;97504;-77
2024/01/30 01:42:49;;;;;;;33.03;13.33;;;;;;;4.62;55.08;101801.66;4966811;28;101286;-76
2024/01/30 01:45:15;;;;;;;31.77;14.30;;;;;;;4.56;55.08;101797.22;4970058;28;96775;-77
2024/01/30 01:47:41;;;;;;;32.27;12.87;;;;;;;4.53;55.40;101790.25;4971016;28;97185;-76
2024/01/30 01:50:07;;;;;;;34.73;13.60;;;;;;;4.53;55.06;101779.84;4983923;28;97567;-77
2024/01/30 01:52:33;;;;;;;27.57;12.63;;;;;;;4.62;54.95;101786.91;4979542;28;97918;-76
2024/01/30 01:54:59;;;;;;;24.70;12.43;;;;;;;4.60;55.46;101803.38;4972633;28;96842;-76
2024/01/30 01:57:24;;;;;;;32.80;13.50;;;;;;;4.60;55.54;101809.44;4985031;28;96885;-76
2024/01/30 01:59:50;;;;;;;26.03;11.83;;;;;;;4.64;55.46;101805.16;4981303;28;101265;-76
2024/01/30 02:02:17;;;;;;;26.03;10.93;;;;;;;4.52;55.31;101798.06;4967672;28;101062;-77
2024/01/30 02:04:43;;;;;;;27.50;12.53;;;;;;;4.48;55.36;101794.53;4983537;28;96802;-76
2024/01/30 02:07:09;;;;;;;34.87;12.37;;;;;;;4.37;55.84;101771.84;4966478;28;97110;-76
2024/01/30 02:09:35;;;;;;;30.60;11.87;;;;;;;4.45;55.16;101788.38;5004260;28;97795;-77
2024/01/30 02:12:00;;;;;;;30.50;11.77;;;;;;;4.30;55.45;101766.56;4983742;28;97367;-77
2024/01/30 02:14:26;;;;;;;21.70;9.70;;;;;;;4.43;55.55;101793.59;4999643;28;97279;-76
2024/01/30 02:16:51;;;;;;;20.73;10.73;;;;;;;4.39;55.63;101798.72;4961026;28;97301;-77
2024/01/30 02:19:17;;;;;;;26.73;11.70;;;;;;;4.47;55.67;101789.31;4984947;28;97673;-76
2024/01/30 02:21:43;;;;;;;26.73;10.93;;;;;;;4.41;55.38;101797.00;4982603;28;97735;-76
2024/01/30 02:24:08;;;;;;;21.23;10.90;;;;;;;4.32;55.70;101788.22;4969280;28;97134;-76
2024/01/30 02:26:34;;;;;;;23.70;11.90;;;;;;;4.36;56.22;101785.66;4982978;28;97652;-77
2024/01/30 02:28:59;;;;;;;23.40;9.43;;;;;;;4.35;56.06;101786.53;4997942;28;97278;-77
2024/01/30 02:31:25;;;;;;;22.67;10.67;;;;;;;4.22;55.70;101762.09;4968951;28;101329;-77
2024/01/30 02:33:51;;;;;;;20.07;9.20;;;;;;;4.23;56.30;101782.03;4984140;28;97311;-76
2024/01/30 02:36:16;;;;;;;19.70;10.23;;;;;;;4.09;56.46;101763.59;4985358;28;97343;-76
2024/01/30 02:38:42;;;;;;;19.37;9.33;;;;;;;4.27;55.81;101773.41;4980742;28;101217;-76
2024/01/30 02:41:07;;;;;;;20.20;9.90;;;;;;;4.15;56.05;101763.69;4972513;28;101054;-77
2024/01/30 02:43:33;;;;;;;16.77;8.87;;;;;;;4.04;56.51;101780.84;4984742;28;97228;-77
2024/01/30 02:46:00;;;;;;;22.43;10.00;;;;;;;4.16;56.48;101783.66;5003173;28;96919;-77
2024/01/30 02:48:26;;;;;;;22.33;9.90;;;;;;;4.10;56.48;101786.13;4985373;28;97907;-77
2024/01/30 02:50:52;;;;;;;17.67;9.40;;;;;;;4.13;56.20;101762.81;5003394;28;97872;-77
2024/01/30 02:53:17;;;;;;;25.93;10.77;;;;;;;4.17;56.26;101789.72;4982449;28;97083;-76
2024/01/30 02:55:43;;;;;;;17.77;8.83;;;;;;;4.10;56.69;101791.34;4981208;28;97924;-77
2024/01/30 02:58:08;;;;;;;19.50;9.47;;;;;;;4.09;56.85;101789.59;4983844;28;97667;-77
2024/01/30 03:00:34;;;;;;;20.57;10.20;;;;;;;3.87;56.85;101762.41;4967581;28;97404;-76
2024/01/30 03:02:59;;;;;;;19.60;8.90;;;;;;;4.05;56.56;101786.06;4984188;28;96914;-77
2024/01/30 03:05:25;;;;;;;17.17;9.77;;;;;;;4.13;56.66;101790.50;4982032;28;96946;-77
2024/01/30 03:07:50;;;;;;;22.03;10.37;;;;;;;4.13;56.50;101787.91;4967101;28;97500;-76
2024/01/30 03:10:16;;;;;;;19.20;9.80;;;;;;;3.93;57.15;101756.44;5003673;28;97357;-77
2024/01/30 03:12:41;;;;;;;21.70;9.90;;;;;;;4.14;56.69;101782.75;4984056;28;97265;-77
2024/01/30 03:15:07;;;;;;;23.63;9.70;;;;;;;4.18;56.70;101786.25;4966349;28;96845;-77
2024/01/30 03:17:33;;;;;;;16.10;9.50;;;;;;;4.01;56.63;101755.69;4965377;28;97481;-77
2024/01/30 03:19:58;;;;;;;21.10;10.23;;;;;;;4.06;56.79;101779.16;4984289;28;97398;-76
2024/01/30 03:22:24;;;;;;;21.47;10.20;;;;;;;4.15;56.62;101778.41;4965963;28;97138;-77
2024/01/30 03:24:49;;;;;;;24.57;10.13;;;;;;;4.12;56.04;101768.84;4970823;28;97513;-76
2024/01/30 03:27:14;;;;;;;19.73;10.93;;;;;;;4.18;56.45;101792.34;5000626;28;97998;-77
2024/01/30 03:29:40;;;;;;;22.83;10.60;;;;;;;4.16;56.51;101780.16;4983707;28;97477;-77
2024/01/30 03:32:05;;;;;;;22.90;9.73;;;;;;;4.20;56.47;101781.97;4981452;28;96707;-76
2024/01/30 03:34:31;;;;;;;22.17;10.23;;;;;;;4.02;56.96;101772.16;4966558;28;97422;-76
2024/01/30 03:36:56;;;;;;;19.07;8.50;;;;;;;3.97;57.20;101768.63;4981526;28;97974;-76
2024/01/30 03:39:23;;;;;;;20.90;11.10;;;;;;;4.07;56.73;101779.19;5001579;28;97482;-76
2024/01/30 03:41:48;;;;;;;20.20;10.67;;;;;;;3.99;56.59;101760.00;4985751;28;96917;-76
2024/01/30 03:44:13;;;;;;;19.77;10.23;;;;;;;4.07;56.60;101768.78;4967002;28;97470;-77
2024/01/30 03:46:39;;;;;;;19.87;9.77;;;;;;;4.04;56.97;101771.34;4982420;28;97426;-76
2024/01/30 03:49:04;;;;;;;21.43;10.17;;;;;;;4.03;56.39;101758.31;4980468;28;97407;-77
2024/01/30 03:51:30;;;;;;;17.33;9.20;;;;;;;4.01;56.98;101780.78;4947951;28;96816;-77
2024/01/30 03:53:55;;;;;;;21.63;9.37;;;;;;;3.79;56.69;101741.50;4979687;28;96824;-77
2024/01/30 03:56:21;;;;;;;22.47;10.53;;;;;;;3.96;56.90;101754.75;4983804;28;97686;-77
2024/01/30 03:58:46;;;;;;;24.10;9.47;;;;;;;4.00;56.60;101769.53;4980982;28;98091;-77
2024/01/30 04:01:15;;;;;;;17.97;9.67;;;;;;;3.79;57.08;101741.50;4982682;28;96905;-76
2024/01/30 04:03:41;;;;;;;23.17;11.37;;;;;;;3.69;57.01;101742.16;4983233;28;98098;-77
2024/01/30 04:06:07;;;;;;;23.50;11.73;;;;;;;3.59;57.27;101724.69;4975954;28;97580;-78
2024/01/30 04:08:33;;;;;;;24.67;10.33;;;;;;;3.85;57.36;101764.09;5002252;28;97523;-76
2024/01/30 04:10:58;;;;;;;24.17;10.67;;;;;;;3.97;57.11;101768.63;4986262;28;96818;-76
2024/01/30 04:13:24;;;;;;;19.87;9.53;;;;;;;4.06;56.81;101776.56;5005952;28;96875;-77
2024/01/30 04:15:49;;;;;;;19.60;9.70;;;;;;;3.92;56.58;101755.53;4967876;28;101178;-77
2024/01/30 04:18:15;;;;;;;26.30;10.47;;;;;;;4.17;56.76;101781.94;4967422;28;101233;-76
2024/01/30 04:20:40;;;;;;;24.10;10.67;;;;;;;4.06;56.70;101769.63;5003952;28;97120;-77
2024/01/30 04:23:06;;;;;;;27.37;10.47;;;;;;;3.91;57.12;101765.91;4988669;28;97287;-76
2024/01/30 04:25:31;;;;;;;20.80;10.77;;;;;;;3.95;56.93;101772.91;4967924;28;101343;-77
2024/01/30 04:27:57;;;;;;;26.37;12.17;;;;;;;3.91;56.77;101758.13;4971629;28;101163;-76
2024/01/30 04:30:22;;;;;;;24.23;10.73;;;;;;;3.79;57.10;101769.19;5002226;28;96772;-77
2024/01/30 04:32:48;;;;;;;16.70;9.60;;;;;;;3.85;57.21;101770.16;4987363;28;96821;-77
2024/01/30 04:35:13;;;;;;;22.60;10.73;;;;;;;3.95;57.08;101765.97;4981868;28;98142;-77
2024/01/30 04:37:38;;;;;;;23.77;10.60;;;;;;;3.83;57.76;101765.78;4986515;28;98146;-76
2024/01/30 04:40:05;;;;;;;27.33;11.60;;;;;;;3.83;57.26;101774.44;4978430;28;97406;-76
2024/01/30 04:42:30;;;;;;;24.37;10.33;;;;;;;3.81;57.37;101775.25;4956099;28;97041;-77
2024/01/30 04:44:56;;;;;;;25.83;12.07;;;;;;;3.79;57.58;101779.59;4986879;28;97468;-77
2024/01/30 04:47:21;;;;;;;23.07;11.60;;;;;;;3.66;57.46;101752.50;4986099;28;97842;-76
2024/01/30 04:49:47;;;;;;;22.53;11.07;;;;;;;3.72;57.57;101775.97;4985119;28;96743;-77
2024/01/30 04:52:12;;;;;;;26.17;12.00;;;;;;;3.77;57.42;101778.66;4970064;28;98314;-77
2024/01/30 04:54:38;;;;;;;26.30;13.23;;;;;;;3.80;57.59;101781.31;4999727;28;98015;-77
2024/01/30 04:57:05;;;;;;;24.50;11.83;;;;;;;3.78;57.46;101786.50;4984651;28;97470;-77
2024/01/30 04:59:31;;;;;;;26.23;13.37;;;;;;;3.82;57.60;101787.44;5002254;28;97330;-77
2024/01/30 05:01:56;;;;;;;21.77;12.00;;;;;;;3.64;58.36;101767.22;4985894;28;97336;-76
2024/01/30 05:04:22;;;;;;;22.33;11.47;;;;;;;3.66;57.63;101785.41;5001215;28;98011;-77
2024/01/30 05:06:47;;;;;;;22.17;11.87;;;;;;;3.66;57.73;101781.06;4983895;28;97373;-77
2024/01/30 05:09:13;;;;;;;31.53;12.60;;;;;;;3.65;57.87;101778.47;4969586;28;96816;-77
2024/01/30 05:11:39;;;;;;;24.20;11.53;;;;;;;3.54;57.79;101770.47;4967314;28;98017;-76
2024/01/30 05:14:05;;;;;;;21.27;11.00;;;;;;;3.65;57.63;101779.34;4983493;28;97447;-77
2024/01/30 05:16:31;;;;;;;25.53;11.60;;;;;;;3.60;57.56;101775.78;4970023;28;101628;-76
2024/01/30 05:18:56;;;;;;;25.53;13.27;;;;;;;3.59;57.80;101774.91;4981872;28;98458;-77
2024/01/30 05:21:22;;;;;;;22.10;12.07;;;;;;;3.50;58.23;101785.13;4985384;28;97175;-77
2024/01/30 05:23:47;;;;;;;24.60;12.33;;;;;;;3.33;58.94;101782.22;4988861;28;100830;-76
2024/01/30 05:26:13;;;;;;;28.90;12.27;;;;;;;3.45;58.63;101781.56;5003167;28;97515;-77
2024/01/30 05:28:38;;;;;;;27.43;13.57;;;;;;;3.55;58.25;101780.91;4985568;28;96775;-76
2024/01/30 05:31:04;;;;;;;24.53;12.47;;;;;;;3.33;58.04;101732.91;5004181;28;97292;-77
2024/01/30 05:33:29;;;;;;;27.97;12.00;;;;;;;3.46;58.22;101751.28;4965994;28;100778;-76
2024/01/30 05:35:55;;;;;;;30.40;14.50;;;;;;;3.52;58.24;101780.84;4987278;28;98415;-77
2024/01/30 05:38:20;;;;;;;23.53;12.77;;;;;;;3.45;58.29;101781.56;4978377;28;96884;-77
2024/01/30 05:40:46;;;;;;;32.73;14.37;;;;;;;3.40;58.22;101778.91;4983888;28;97182;-77
2024/01/30 05:43:12;;;;;;;29.10;13.93;;;;;;;3.29;58.36;101753.59;4982224;28;97379;-77
2024/01/30 05:45:37;;;;;;;26.67;12.50;;;;;;;3.55;58.44;101788.69;4968899;28;97432;-77
2024/01/30 05:48:03;;;;;;;27.43;12.37;;;;;;;3.64;58.29;101777.59;4965549;28;96908;-77
2024/01/30 05:50:29;;;;;;;25.73;14.33;;;;;;;3.60;58.36;101789.63;4983763;28;97313;-77
2024/01/30 05:52:55;;;;;;;28.23;12.43;;;;;;;3.51;58.45;101780.81;4987619;28;101054;-77
2024/01/30 05:55:20;;;;;;;29.93;13.67;;;;;;;3.60;58.10;101781.84;4951437;28;100603;-77
2024/01/30 05:57:46;;;;;;;28.23;13.03;;;;;;;3.41;58.12;101759.00;4968476;28;97158;-77
2024/01/30 06:00:12;;;;;;;25.93;11.87;;;;;;;3.44;58.32;101765.97;5003371;28;96826;-77
2024/01/30 06:02:38;;;;;;;23.70;12.10;;;;;;;3.51;58.37;101773.88;5002805;28;97434;-77
2024/01/30 06:05:03;;;;;;;25.43;13.43;;;;;;;3.60;57.95;101781.84;4985631;28;97279;-74
2024/01/30 06:07:29;;;;;;;25.40;12.27;;;;;;;3.58;58.00;101787.88;4976074;28;96902;-74
2024/01/30 06:09:54;;;;;;;28.20;14.40;;;;;;;3.36;58.43;101764.09;4993038;28;96786;-74
2024/01/30 06:12:20;;;;;;;27.87;12.97;;;;;;;3.43;58.33;101782.38;4977375;28;97516;-74
2024/01/30 06:14:45;;;;;;;29.77;13.03;;;;;;;3.44;58.62;101785.03;4982963;28;101056;-75
2024/01/30 06:17:11;;;;;;;29.00;13.30;;;;;;;3.40;58.60;101785.78;4982673;28;97201;-75
2024/01/30 06:19:39;;;;;;;25.30;13.33;;;;;;;3.41;58.67;101779.78;4973940;28;98452;-76
2024/01/30 06:22:04;;;;;;;31.67;14.63;;;;;;;3.51;58.09;101784.28;5001121;28;96839;-74
2024/01/30 06:24:30;;;;;;;24.80;13.20;;;;;;;3.43;58.78;101782.38;4977732;28;101246;-74
2024/01/30 06:26:56;;;;;;;24.20;14.07;;;;;;;3.52;58.75;101798.13;5002628;28;98235;-74
2024/01/30 06:29:21;;;;;;;28.10;12.80;;;;;;;3.49;58.79;101782.50;4967517;28;97259;-71
2024/01/30 06:31:47;;;;;;;20.80;11.63;;;;;;;3.57;58.39;101786.97;4967125;28;97591;-71
2024/01/30 06:34:12;;;;;;;25.20;14.47;;;;;;;3.54;58.42;101792.13;4970855;28;101439;-71
2024/01/30 06:36:38;;;;;;;24.20;13.40;;;;;;;3.53;58.74;101781.72;4968300;28;97318;-71
2024/01/30 06:39:03;;;;;;;22.67;13.00;;;;;;;3.35;58.97;101761.50;5008124;28;97041;-71
2024/01/30 06:41:29;;;;;;;29.10;11.73;;;;;;;3.48;59.23;101778.16;4991817;28;97369;-71
2024/01/30 06:43:55;;;;;;;28.70;12.27;;;;;;;3.54;58.89;101786.94;4976120;28;98957;-79
2024/01/30 06:46:21;;;;;;;28.57;11.93;;;;;;;3.56;58.80;101777.44;4974714;28;98117;-79
2024/01/30 06:48:46;;;;;;;29.57;13.40;;;;;;;3.53;58.59;101768.75;4991742;28;97422;-79
2024/01/30 06:51:12;;;;;;;25.20;12.97;;;;;;;3.37;58.96;101757.19;4972401;28;98375;-80
2024/01/30 06:53:37;;;;;;;23.20;12.43;;;;;;;3.48;58.79;101788.53;4989137;28;97435;-80
2024/01/30 06:56:03;;;;;;;32.50;14.13;;;;;;;3.36;59.22;101758.91;4973320;28;96969;-75
2024/01/30 06:58:29;;;;;;;32.17;12.23;;;;;;;3.54;59.15;101784.31;4988606;28;99340;-76
2024/01/30 07:00:55;;;;;;;21.00;8.73;;;;;;;3.51;59.29;101788.59;4988729;28;97623;-79
2024/01/30 07:03:21;;;;;;;18.50;8.23;;;;;;;3.24;58.80;101730.16;4974017;28;100571;-79
2024/01/30 07:05:48;;;;;;;16.57;8.87;;;;;;;3.24;59.32;101742.25;4992284;28;97951;-79
2024/01/30 07:08:17;;;;;;;13.13;7.50;;;;;;;3.49;59.29;101777.31;4992819;28;97039;-78
2024/01/30 07:10:45;;;;;;;11.67;6.87;;;;;;;3.60;59.29;101780.97;4992837;28;98154;-79
2024/01/30 07:13:11;;;;;;;20.30;9.43;;;;;;;3.71;58.90;101781.16;4986824;28;97951;-81
2024/01/30 07:15:37;;;;;;;18.30;8.47;;;;;;;3.68;59.13;101781.13;4978380;28;96748;-80
2024/01/30 07:18:04;;;;;;;16.87;7.40;;;;;;;3.72;58.77;101783.78;4983950;28;97303;-79
2024/01/30 07:20:31;;;;;;;15.27;7.17;;;;;;;3.58;58.93;101761.91;4962859;28;97713;-79
2024/01/30 07:22:58;;;;;;;17.20;7.13;;;;;;;3.89;58.36;101762.41;4956825;28;101624;-79
2024/01/30 07:25:26;;;;;;;19.73;7.13;;;;;;;4.26;58.23;101789.88;4982569;28;96855;-79
2024/01/30 07:27:52;;;;;;;11.03;5.70;;;;;;;4.33;57.62;101770.88;4967019;28;96886;-80
2024/01/30 07:30:19;;;;;;;16.57;6.10;;;;;;;4.58;57.01;101764.31;4968964;28;102631;-80
2024/01/30 07:32:46;;;;;;;22.80;7.40;;;;;;;4.88;56.65;101766.44;4968795;28;98055;-80
2024/01/30 07:35:11;;;;;;;17.10;6.80;;;;;;;5.19;56.11;101792.84;4979988;28;98049;-80
2024/01/30 07:37:37;;;;;;;17.30;6.87;;;;;;;5.39;55.34;101757.47;4959007;28;96908;-83
2024/01/30 07:40:03;;;;;;;16.17;6.97;;;;;;;5.82;54.42;101780.47;4961878;28;101189;-82
2024/01/30 07:42:29;;;;;;;13.52;7.75;;;;;;;5.89;54.19;101774.44;4952639;28;101294;-82
2024/01/30 07:44:54;;;;;;;15.27;6.65;;;;;;;6.03;54.09;101770.22;4969725;28;96763;-82
2024/01/30 07:47:20;;;;;;;11.77;6.37;;;;;;;6.09;53.24;101762.47;4974229;28;97097;-75
2024/01/30 07:49:45;;;;;;;10.40;6.13;;;;;;;6.25;53.36;101776.47;4989411;28;97411;-81
2024/01/30 07:52:11;;;;;;;14.73;6.70;;;;;;;6.52;52.71;101801.88;4983873;28;101321;-83
2024/01/30 07:54:38;;;;;;;14.77;7.22;;;;;;;6.73;52.80;101789.81;4955065;28;97289;-78
2024/01/30 07:57:05;;;;;;;16.58;6.60;;;;;;;6.88;52.45;101802.06;4974161;28;96848;-76
2024/01/30 07:59:30;;;;;;;15.55;7.65;;;;;;;6.97;51.66;101778.59;4984400;28;99426;-75
2024/01/30 08:01:56;;;;;;;16.55;6.97;;;;;;;7.24;51.01;101769.97;5007394;28;97453;-78
2024/01/30 08:04:21;;;;;;;11.70;5.85;;;;;;;7.56;50.36;101790.94;4992727;28;97379;-76
2024/01/30 08:06:47;;;;;;;10.30;5.88;;;;;;;7.66;49.90;101778.78;4956096;28;97296;-76
2024/01/30 08:09:12;;;;;;;10.45;6.03;;;;;;;7.76;49.34;101774.44;5004372;28;97473;-76
2024/01/30 08:11:38;;;;;;;9.55;5.72;;;;;;;8.13;49.11;101768.31;4994142;28;101409;-76
2024/01/30 08:14:03;;;;;;;12.73;6.10;;;;;;;8.48;47.69;101771.78;4988760;28;97092;-76
2024/01/30 08:16:29;;;;;;;10.57;6.07;;;;;;;9.00;46.84;101769.88;4983576;28;97485;-76
2024/01/30 08:18:57;;;;;;;12.70;6.00;;;;;;;9.32;46.83;101758.34;4979727;28;101451;-76
2024/01/30 08:21:22;;;;;;;11.30;6.15;;;;;;;9.87;45.38;101762.34;4972517;28;97538;-76
2024/01/30 08:23:48;;;;;;;11.40;6.13;;;;;;;10.45;44.32;101767.06;5002641;28;97363;-76
2024/01/30 08:26:13;;;;;;;12.65;6.57;;;;;;;10.93;43.70;101770.00;4971122;28;97944;-76
2024/01/30 08:28:39;;;;;;;10.60;5.45;;;;;;;11.19;42.32;101761.78;4982196;28;97938;-75
2024/01/30 08:31:05;;;;;;;10.23;5.32;;;;;;;11.46;41.44;101765.78;4961635;28;101222;-77
2024/01/30 08:33:30;;;;;;;13.82;6.50;;;;;;;11.53;41.43;101750.78;4972865;28;98004;-76
2024/01/30 08:35:55;;;;;;;14.55;6.35;;;;;;;11.77;40.71;101774.06;4972452;28;97424;-80
2024/01/30 08:38:21;;;;;;;10.93;5.43;;;;;;;12.00;41.18;101755.28;4982670;28;101721;-77
2024/01/30 08:40:46;;;;;;;16.80;5.75;;;;;;;12.41;40.07;101764.22;4954408;28;101615;-77
2024/01/30 08:43:12;;;;;;;11.02;5.57;;;;;;;12.55;39.09;101760.47;4990066;28;97333;-78
2024/01/30 08:45:38;;;;;;;10.45;5.07;;;;;;;12.79;39.15;101770.50;4990876;28;97281;-76
2024/01/30 08:48:03;;;;;;;12.88;5.15;;;;;;;13.12;38.31;101763.66;4972112;28;97863;-78
2024/01/30 08:50:29;;;;;;;13.45;5.65;;;;;;;12.92;38.74;101768.50;4989166;28;97766;-77
2024/01/30 08:52:55;;;;;;;12.82;6.30;;;;;;;12.99;38.33;101741.09;4974636;28;96889;-79
2024/01/30 08:55:20;;;;;;;10.80;6.03;;;;;;;13.09;38.08;101750.56;4975163;28;96946;-77
2024/01/30 08:57:46;;;;;;;12.43;5.28;;;;;;;13.64;37.78;101766.91;4992991;28;101276;-77
2024/01/30 09:00:17;;;;;;;11.15;5.15;;;;;;;13.73;36.88;101764.06;5007772;28;97378;-78
2024/01/30 09:02:49;;;;;;;14.70;5.65;;;;;;;13.95;37.22;101737.13;4962886;28;97311;-78
2024/01/30 09:05:14;;;;;;;12.35;5.35;;;;;;;14.31;36.08;101769.66;4995229;28;96837;-77
2024/01/30 09:07:40;;;;;;;10.57;4.93;;;;;;;14.46;36.02;101750.72;5007964;28;98284;-77
2024/01/30 09:10:06;;;;;;;7.90;4.72;;;;;;;14.85;35.79;101744.38;4998398;28;97811;-81
2024/01/30 09:12:32;;;;;;;12.43;5.93;;;;;;;14.77;35.36;101726.09;4987849;28;97232;-82
2024/01/30 09:14:57;;;;;;;10.40;5.20;;;;;;;15.37;35.18;101750.75;4989934;28;98201;-81
2024/01/30 09:17:23;;;;;;;11.80;5.18;;;;;;;14.76;34.35;101724.38;4986009;28;97444;-81
2024/01/30 09:19:48;;;;;;;11.30;5.90;;;;;;;14.81;34.81;101750.69;4973088;28;98594;-83
2024/01/30 09:22:17;;;;;;;14.20;6.10;;;;;;;15.02;34.59;101730.66;4976728;28;97355;-85
2024/01/30 09:24:43;;;;;;;21.45;7.25;;;;;;;14.94;34.88;101752.03;4992920;28;97366;-84
2024/01/30 09:27:08;;;;;;;11.80;5.20;;;;;;;15.48;34.05;101719.50;4965847;28;100137;-84
2024/01/30 09:29:36;;;;;;;12.02;5.88;;;;;;;16.22;33.26;101746.19;4994751;28;97931;-82
2024/01/30 09:32:01;;;;;;;11.48;5.43;;;;;;;15.99;33.03;101728.44;4983903;28;97283;-82
2024/01/30 09:34:27;;;;;;;7.70;4.55;;;;;;;16.36;32.36;101740.41;4979726;28;97004;-84
2024/01/30 09:36:52;;;;;;;7.20;4.53;;;;;;;16.27;32.25;101723.91;5003637;28;98035;-79
2024/01/30 09:39:19;;;;;;;12.00;5.57;;;;;;;16.39;32.91;101740.28;4977190;28;100971;-80
2024/01/30 09:41:48;;;;;;;15.75;6.47;;;;;;;16.88;31.53;101723.47;4971362;28;96855;-75
2024/01/30 09:44:16;;;;;;;8.82;4.75;;;;;;;17.12;31.19;101729.59;4994070;28;96929;-80
2024/01/30 09:46:42;;;;;;;13.60;4.93;;;;;;;17.23;31.44;101705.31;4973017;28;101417;-83
2024/01/30 09:49:09;;;;;;;9.50;4.95;;;;;;;17.20;30.75;101695.69;4989995;28;97436;-80
2024/01/30 09:51:35;;;;;;;10.10;5.28;;;;;;;17.49;30.94;101719.34;4979874;28;97377;-80
2024/01/30 09:54:02;;;;;;;9.32;5.25;;;;;;;16.89;30.81;101724.34;4973338;28;96915;-80
2024/01/30 09:56:28;;;;;;;18.25;6.72;;;;;;;16.47;31.38;101717.91;4946801;28;101435;-80
2024/01/30 09:58:54;;;;;;;22.73;8.85;;;;;;;16.05;32.62;101712.34;4975117;28;101403;-81
2024/01/30 10:01:20;;;;;;;18.40;8.55;;;;;;;15.95;32.80;101721.53;4988461;28;101661;-81
2024/01/30 10:03:46;;;;;;;15.68;6.50;;;;;;;15.63;33.24;101710.19;4961026;28;97170;-80
2024/01/30 10:06:12;;;;;;;27.73;10.30;;;;;;;15.34;33.85;101719.94;4993405;28;97741;-80
2024/01/30 10:08:37;;;;;;;23.95;10.40;;;;;;;14.74;34.41;101706.81;4966270;28;101474;-79
2024/01/30 10:11:03;;;;;;;25.20;9.90;;;;;;;14.39;34.88;101709.53;5010650;28;96846;-78
2024/01/30 10:13:29;;;;;;;26.33;10.38;;;;;;;13.56;36.15;101702.94;4974853;28;97210;-77
2024/01/30 10:15:55;;;;;;;26.35;11.15;;;;;;;13.63;36.19;101704.50;4954369;28;101568;-79
2024/01/30 10:18:22;;;;;;;56.05;20.42;;;;;;;13.34;37.04;101682.31;4985531;28;97571;-80
2024/01/30 10:20:48;;;;;;;28.45;11.98;;;;;;;13.40;37.00;101706.81;4965695;28;97079;-81
2024/01/30 10:23:13;;;;;;;30.83;10.45;;;;;;;13.25;36.90;101697.47;4980414;28;96853;-81
2024/01/30 10:25:39;;;;;;;39.35;15.35;;;;;;;13.29;37.49;101694.78;4967543;28;101293;-79
2024/01/30 10:28:05;;;;;;;26.65;10.55;;;;;;;13.17;37.35;101684.47;4965886;28;97505;-79
2024/01/30 10:30:30;;;;;;;11.38;6.13;;;;;;;13.31;36.96;101713.19;5000542;28;97288;-80
2024/01/30 10:32:55;;;;;;;17.13;7.97;;;;;;;13.11;36.83;101663.50;4994296;28;98557;-80
2024/01/30 10:35:21;;;;;;;39.28;15.75;;;;;;;13.09;37.24;101703.09;4972336;28;101457;-80
2024/01/30 10:37:47;;;;;;;25.83;10.48;;;;;;;13.00;37.50;101684.88;4952762;28;101372;-81
2024/01/30 10:40:14;;;;;;;31.98;12.05;;;;;;;13.04;37.25;101701.47;5011363;28;96762;-81
2024/01/30 10:42:43;;;;;;;19.05;8.45;;;;;;;12.84;37.31;101694.00;4972317;28;96959;-80
2024/01/30 10:45:13;;;;;;;27.08;10.77;;;;;;;12.96;37.27;101700.78;4971694;28;100619;-82
2024/01/30 10:47:53;;;;;;;46.75;18.15;;;;;;;12.72;37.67;101684.59;4973491;28;97553;-81
2024/01/30 10:50:19;;;;;;;58.28;22.38;;;;;;;12.74;37.87;101679.28;4971045;28;97276;-81
2024/01/30 10:52:44;;;;;;;28.23;10.13;;;;;;;12.75;38.21;101673.97;4965399;28;97299;-82
2024/01/30 10:55:11;;;;;;;17.83;7.55;;;;;;;12.54;38.16;101666.56;4955628;28;101370;-81
2024/01/30 10:57:37;;;;;;;17.20;8.93;;;;;;;12.28;38.52;101652.16;4990116;28;97376;-83
2024/01/30 11:00:11;;;;;;;31.67;13.43;;;;;;;12.31;38.38;101677.53;4973861;28;96812;-81
2024/01/30 11:02:38;;;;;;;14.30;6.45;;;;;;;12.28;38.76;101646.88;4960732;28;97494;-83
2024/01/30 11:05:04;;;;;;;10.68;5.45;;;;;;;12.55;38.28;101677.03;4976946;28;100689;-81
2024/01/30 11:07:30;;;;;;;17.13;5.15;;;;;;;12.49;38.41;101655.22;4957191;28;100846;-82
2024/01/30 11:10:00;;;;;;;12.23;5.80;;;;;;;12.72;38.23;101657.38;4957055;28;97150;-81